Warner, Illinois
Current Conditions -  °F | °C
As of 1:52 AM on Wednesday 22 Oct 2014 (Local Time) from KMLI Reporting Station
Clear Clear  
Wind Chill: 28°   Ceiling: Unl
Heat Index: 34°   Visibility: 10mi
Dew Point: 32°   Wind: 7mph
Humidity: 92%   Direction: 100°E
Pressure: 30.27"   Gusts: NA
Location:  41.3669°N, 90.3966°W
Report Text: KMLI 220652Z AUTO 10006KT 10SM CLR 01/00 A3027 RMK AO2 SLP254 T00110000 $
Loading
Personal Weather Stations






























Interactive Weather Map
Tropical Storm Tracking
New forecast layout! Learn more

10-Day Weather Forecast

Advertisements
Track Severe Weather on mobile